createdAt,value
2019-01-05T00:07:47.850Z,100970.37
2019-01-05T00:23:01.514Z,100974.30
2019-01-05T00:38:25.297Z,100976.44
2019-01-05T00:53:48.562Z,100962.84
2019-01-05T01:09:10.796Z,100948.80
2019-01-05T01:24:18.469Z,100927.25
2019-01-05T01:39:41.713Z,100910.69
2019-01-05T01:54:52.180Z,100899.42
2019-01-05T02:10:18.160Z,100897.40
2019-01-05T02:26:05.284Z,100906.52
2019-01-05T02:41:33.730Z,100888.92
2019-01-05T02:57:11.779Z,100865.09
2019-01-05T03:12:51.365Z,100872.50
2019-01-05T03:28:26.175Z,100873.47
2019-01-05T03:43:56.692Z,100842.41
2019-01-05T03:59:33.379Z,100829.11
2019-01-05T04:15:55.782Z,100862.26
2019-01-05T04:31:27.627Z,100865.23
2019-01-05T04:47:09.380Z,100879.12
2019-01-05T05:02:22.781Z,100888.03
2019-01-05T05:17:53.316Z,100906.77
2019-01-05T05:33:40.459Z,100902.83
2019-01-05T05:49:24.710Z,100934.83
2019-01-05T06:04:59.080Z,100946.55
2019-01-05T06:20:48.066Z,100975.69
2019-01-05T06:36:23.048Z,100994.21
2019-01-05T06:52:15.995Z,101031.03
2019-01-05T07:07:36.522Z,101036.77
2019-01-05T07:23:01.755Z,101067.53
2019-01-05T07:38:56.367Z,101070.20
2019-01-05T07:54:23.683Z,101086.56
2019-01-05T08:09:43.327Z,101101.53
2019-01-05T08:25:15.188Z,101126.14
2019-01-05T08:40:56.012Z,101130.16
2019-01-05T08:56:36.441Z,101128.23
2019-01-05T09:11:49.981Z,101133.93
2019-01-05T09:27:20.943Z,101155.27
2019-01-05T09:43:10.091Z,101172.47
2019-01-05T09:59:01.676Z,101174.91
2019-01-05T10:14:51.131Z,101203.72
2019-01-05T10:30:36.705Z,101224.38
2019-01-05T10:46:11.649Z,101228.57
2019-01-05T11:01:37.388Z,101240.98
2019-01-05T11:16:52.829Z,101238.77
2019-01-05T11:32:28.006Z,101259.03
2019-01-05T11:48:05.935Z,101299.34
2019-01-05T12:03:56.073Z,101306.14
2019-01-05T12:19:40.232Z,101315.47
2019-01-05T12:35:24.264Z,101341.36
2019-01-05T12:50:57.934Z,101385.64
2019-01-05T13:06:30.820Z,101408.83
2019-01-05T13:21:50.652Z,101424.20
2019-01-05T13:37:28.520Z,101435.60
2019-01-05T13:52:49.943Z,101470.70
2019-01-05T14:08:03.899Z,101492.05
2019-01-05T14:23:20.779Z,101499.25
2019-01-05T14:38:34.234Z,101527.90
2019-01-05T14:53:44.639Z,101534.31
2019-01-05T15:09:10.120Z,101552.06
2019-01-05T15:24:24.247Z,101535.22
2019-01-05T15:39:48.314Z,101560.38
2019-01-05T15:55:12.384Z,101578.36
2019-01-05T16:10:29.379Z,101587.14
2019-01-05T16:25:42.811Z,101589.45
2019-01-05T16:40:50.671Z,101609.80
2019-01-05T16:55:58.381Z,101626.12
2019-01-05T17:11:19.425Z,101657.70
2019-01-05T17:26:44.172Z,101654.80
2019-01-05T17:41:55.252Z,101674.11
2019-01-05T17:57:05.741Z,101682.83
2019-01-05T18:12:25.512Z,101686.64
2019-01-05T18:27:57.397Z,101689.02
2019-01-05T18:43:05.009Z,101693.28
2019-01-05T18:58:13.468Z,101720.09
2019-01-05T19:13:37.710Z,101743.16
2019-01-05T19:28:49.208Z,101724.38
2019-01-05T19:44:00.820Z,101741.45
2019-01-05T19:59:08.531Z,101757.14
2019-01-05T20:14:32.456Z,101749.91
2019-01-05T20:29:40.333Z,101753.15
2019-01-05T20:44:48.195Z,101786.39
2019-01-05T21:00:08.567Z,101783.84
2019-01-05T21:15:16.614Z,101795.70
2019-01-05T21:30:36.559Z,101807.21
2019-01-05T21:45:56.418Z,101825.33
2019-01-05T22:01:04.201Z,101840.32
2019-01-05T22:16:27.550Z,101837.13
2019-01-05T22:31:35.127Z,101861.25
2019-01-05T22:46:48.638Z,101870.92
2019-01-05T23:01:56.107Z,101886.84
2019-01-05T23:17:13.040Z,101879.90
2019-01-05T23:32:21.056Z,101897.42
2019-01-05T23:47:44.878Z,101917.63
